createdAt,value
2018-03-22T00:00:04.282Z,3.2
2018-03-22T00:05:02.903Z,3.2
2018-03-22T00:10:03.688Z,3.2
2018-03-22T00:15:03.203Z,3.2
2018-03-22T00:20:02.698Z,3.2
2018-03-22T00:25:03.173Z,3.2
2018-03-22T00:30:02.643Z,3.2
2018-03-22T00:35:03.156Z,3.2
2018-03-22T00:40:02.622Z,3.2
2018-03-22T00:45:03.110Z,3.2
2018-03-22T00:50:02.601Z,3.2
2018-03-22T00:55:03.086Z,3.2
2018-03-22T01:00:02.575Z,3.2
2018-03-22T01:05:02.970Z,3.5
2018-03-22T01:10:02.589Z,3.5
2018-03-22T01:15:03.352Z,3.5
2018-03-22T01:20:02.824Z,3.5
2018-03-22T01:25:02.362Z,3.5
2018-03-22T01:30:02.839Z,3.5
2018-03-22T01:35:03.275Z,2.5
2018-03-22T01:40:02.888Z,2.2
2018-03-22T01:45:02.351Z,2.2
2018-03-22T01:50:02.803Z,2.0
2018-03-22T01:55:03.212Z,2.2
2018-03-22T02:00:02.679Z,2.2
2018-03-22T02:05:03.170Z,2.2
2018-03-22T02:10:02.816Z,2.2
2018-03-22T02:15:02.446Z,2.2
2018-03-22T02:20:02.979Z,2.2
2018-03-22T02:25:02.496Z,2.2
2018-03-22T02:30:03.096Z,2.2
2018-03-22T02:35:02.581Z,2.4
2018-03-22T02:40:03.148Z,2.4
2018-03-22T02:45:02.665Z,2.2
2018-03-22T02:50:03.280Z,2.4
2018-03-22T02:55:02.774Z,2.7
2018-03-22T03:00:03.236Z,3.0
2018-03-22T03:05:02.661Z,3.2
2018-03-22T03:10:03.202Z,3.2
2018-03-22T03:15:02.736Z,3.2
2018-03-22T03:20:03.385Z,3.2
2018-03-22T03:25:02.874Z,3.2
2018-03-22T03:30:03.325Z,3.2
2018-03-22T03:35:02.792Z,3.2
2018-03-22T03:40:03.347Z,3.2
2018-03-22T03:45:02.861Z,3.2
2018-03-22T03:50:03.368Z,3.2
2018-03-22T03:55:02.838Z,3.2
2018-03-22T04:00:04.148Z,3.2
2018-03-22T04:05:02.670Z,3.2
2018-03-22T04:10:03.206Z,3.2
2018-03-22T04:15:02.673Z,3.2
2018-03-22T04:20:03.237Z,3.5
2018-03-22T04:25:02.785Z,3.5
2018-03-22T04:30:03.233Z,3.2
2018-03-22T04:35:02.703Z,3.2
2018-03-22T04:40:03.168Z,3.2
2018-03-22T04:45:02.607Z,3.2
2018-03-22T04:50:03.121Z,2.7
2018-03-22T04:55:02.617Z,2.5
2018-03-22T05:00:03.365Z,2.5
2018-03-22T05:05:02.753Z,2.5
2018-03-22T05:10:03.275Z,2.4
2018-03-22T05:15:02.730Z,2.5
2018-03-22T05:20:03.245Z,2.5
2018-03-22T05:25:02.723Z,2.5
2018-03-22T05:30:02.933Z,2.5
2018-03-22T05:35:02.536Z,2.5
2018-03-22T05:40:03.132Z,2.5
2018-03-22T05:45:02.815Z,2.5
2018-03-22T05:50:02.679Z,2.5
2018-03-22T05:55:03.186Z,2.5
2018-03-22T06:00:02.698Z,2.5
2018-03-22T06:05:03.229Z,2.5
2018-03-22T06:10:02.832Z,2.4
2018-03-22T06:15:02.436Z,2.4
2018-03-22T06:20:03.114Z,2.5
2018-03-22T06:25:02.694Z,2.5
2018-03-22T06:30:03.251Z,2.5
2018-03-22T06:35:02.778Z,2.5
2018-03-22T06:40:02.431Z,2.5
2018-03-22T06:45:03.151Z,2.7
2018-03-22T06:50:02.634Z,2.7
2018-03-22T06:55:03.225Z,2.7
2018-03-22T07:00:02.911Z,2.7
2018-03-22T07:05:02.518Z,2.9
2018-03-22T07:10:03.025Z,2.9
2018-03-22T07:15:02.592Z,3.0
2018-03-22T07:20:03.174Z,3.0
2018-03-22T07:25:02.683Z,3.0
2018-03-22T07:30:03.206Z,3.2
2018-03-22T07:35:02.766Z,3.2
2018-03-22T07:40:03.395Z,3.2
2018-03-22T07:45:02.958Z,3.2
2018-03-22T07:50:02.638Z,3.2
2018-03-22T07:55:03.217Z,3.2
2018-03-22T08:00:02.998Z,3.5
2018-03-22T08:05:02.561Z,3.5
2018-03-22T08:10:03.178Z,3.7
2018-03-22T08:15:02.669Z,3.7
2018-03-22T08:20:03.359Z,3.7
2018-03-22T08:25:03.022Z,3.7
2018-03-22T08:30:02.761Z,3.7
2018-03-22T08:35:03.303Z,3.7
2018-03-22T08:40:03.238Z,4.0
2018-03-22T08:45:02.755Z,4.0
2018-03-22T08:50:03.337Z,4.0
2018-03-22T08:55:02.854Z,4.0
2018-03-22T09:00:02.479Z,4.0
2018-03-22T09:05:03.085Z,4.3
2018-03-22T09:10:02.679Z,4.5
2018-03-22T09:15:03.144Z,4.5
2018-03-22T09:20:02.688Z,4.5
2018-03-22T09:25:03.290Z,4.8
2018-03-22T09:30:02.791Z,4.8
2018-03-22T09:35:03.283Z,4.8
2018-03-22T09:40:02.873Z,5.0
2018-03-22T09:45:02.393Z,5.0
2018-03-22T09:50:02.956Z,5.0
2018-03-22T09:55:02.595Z,5.0
2018-03-22T10:00:03.211Z,5.3
2018-03-22T10:05:02.694Z,5.4
2018-03-22T10:10:03.284Z,5.4
2018-03-22T10:15:02.781Z,5.4
2018-03-22T10:20:03.334Z,5.5
2018-03-22T10:25:02.914Z,5.5
2018-03-22T10:30:02.461Z,5.5
2018-03-22T10:35:03.049Z,5.8
2018-03-22T10:40:02.680Z,5.9
2018-03-22T10:45:03.240Z,5.9
2018-03-22T10:50:02.744Z,5.9
2018-03-22T10:55:03.311Z,6.1
2018-03-22T11:00:02.851Z,6.5
2018-03-22T11:05:02.425Z,6.6
2018-03-22T11:10:03.032Z,6.6
2018-03-22T11:15:02.556Z,6.6
2018-03-22T11:20:03.037Z,7.1
2018-03-22T11:25:02.612Z,7.6
2018-03-22T11:30:03.238Z,8.5
2018-03-22T11:35:02.902Z,9.0
2018-03-22T11:40:02.484Z,8.1
2018-03-22T11:45:03.002Z,7.6
2018-03-22T11:50:02.519Z,7.5
2018-03-22T11:55:03.027Z,7.5
2018-03-22T12:00:02.581Z,6.9
2018-03-22T12:05:03.063Z,6.9
2018-03-22T12:10:02.613Z,6.9
2018-03-22T12:15:03.152Z,6.9
2018-03-22T12:20:02.640Z,7.0
2018-03-22T12:25:03.236Z,7.5
2018-03-22T12:30:02.782Z,8.5
2018-03-22T12:35:03.304Z,9.1
2018-03-22T12:40:02.881Z,10.0
2018-03-22T12:45:02.372Z,10.3
2018-03-22T12:50:03.020Z,10.1
2018-03-22T12:55:02.607Z,9.3
2018-03-22T13:00:03.200Z,9.3
2018-03-22T13:05:03.239Z,10.0
2018-03-22T13:10:02.765Z,10.3
2018-03-22T13:15:03.367Z,10.3
2018-03-22T13:20:02.927Z,9.8
2018-03-22T13:25:02.440Z,9.8
2018-03-22T13:30:02.922Z,10.0
2018-03-22T13:35:02.431Z,10.0
2018-03-22T13:40:03.080Z,10.1
2018-03-22T13:45:02.638Z,9.6
2018-03-22T13:50:03.226Z,9.3
2018-03-22T13:55:02.682Z,9.3
2018-03-22T14:00:03.291Z,9.1
2018-03-22T14:05:02.971Z,9.1
2018-03-22T14:10:02.597Z,9.0
2018-03-22T14:15:03.188Z,9.0
2018-03-22T14:20:02.814Z,8.6
2018-03-22T14:25:03.323Z,8.6
2018-03-22T14:30:02.852Z,8.6
2018-03-22T14:35:02.411Z,8.6
2018-03-22T14:40:03.004Z,8.6
2018-03-22T14:45:02.654Z,8.6
2018-03-22T14:50:02.398Z,8.6
2018-03-22T14:55:02.966Z,8.6
2018-03-22T15:00:02.664Z,8.6
2018-03-22T15:05:03.181Z,8.5
2018-03-22T15:10:02.820Z,8.5
2018-03-22T15:15:02.425Z,8.3
2018-03-22T15:20:02.985Z,8.5
2018-03-22T15:25:02.502Z,8.6
2018-03-22T15:30:03.116Z,8.6
2018-03-22T15:35:02.702Z,8.6
2018-03-22T15:40:03.259Z,8.6
2018-03-22T15:45:02.834Z,8.5
2018-03-22T15:50:03.332Z,8.3
2018-03-22T15:55:02.844Z,8.3
2018-03-22T16:00:02.413Z,8.3
2018-03-22T16:05:03.008Z,8.5
2018-03-22T16:10:02.549Z,8.5
2018-03-22T16:15:03.075Z,8.3
2018-03-22T16:20:02.679Z,8.5
2018-03-22T16:25:03.181Z,8.6
2018-03-22T16:30:02.732Z,8.6
2018-03-22T16:35:03.306Z,8.8
2018-03-22T16:40:02.909Z,8.6
2018-03-22T16:45:02.501Z,8.5
2018-03-22T16:50:03.086Z,8.5
2018-03-22T17:00:02.670Z,8.5
2018-03-22T17:05:02.686Z,8.3
2018-03-22T17:10:03.338Z,8.5
2018-03-22T19:15:02.879Z,7.0
2018-03-22T19:20:03.357Z,7.0
2018-03-22T19:25:02.903Z,7.0
2018-03-22T19:30:02.419Z,7.0
2018-03-22T19:35:03.106Z,6.9
2018-03-22T19:40:02.724Z,6.9
2018-03-22T19:45:03.273Z,6.9
2018-03-22T19:50:02.811Z,6.9
2018-03-22T19:55:03.378Z,6.9
2018-03-22T20:00:02.935Z,6.6
2018-03-22T20:05:02.454Z,6.6
2018-03-22T20:10:03.150Z,6.6
2018-03-22T20:15:02.676Z,6.6
2018-03-22T20:20:03.262Z,6.6
2018-03-22T20:25:02.838Z,6.6
2018-03-22T20:30:02.785Z,6.6
2018-03-22T20:35:03.363Z,6.6
2018-03-22T20:40:02.916Z,6.6
2018-03-22T20:45:02.458Z,6.6
2018-03-22T20:50:03.054Z,6.6
2018-03-22T20:55:02.619Z,6.5
2018-03-22T21:00:03.115Z,6.5
2018-03-22T21:05:02.649Z,6.5
2018-03-22T21:10:03.269Z,6.5
2018-03-22T21:15:02.807Z,6.5
2018-03-22T21:20:02.425Z,6.4
2018-03-22T21:25:02.942Z,6.4
2018-03-22T21:30:02.560Z,6.4
2018-03-22T21:35:03.138Z,6.4
2018-03-22T21:40:02.748Z,6.1
2018-03-22T21:45:03.304Z,6.0
2018-03-22T21:50:02.880Z,6.0
2018-03-22T21:55:02.487Z,5.9
2018-03-22T22:00:03.010Z,5.9
2018-03-22T22:05:02.567Z,5.9
2018-03-22T22:10:03.193Z,5.9
2018-03-22T22:15:02.741Z,5.5
2018-03-22T22:20:03.297Z,5.5
2018-03-22T22:25:02.895Z,5.3
2018-03-22T22:30:02.887Z,5.3
2018-03-22T22:35:02.440Z,5.4
2018-03-22T22:40:03.036Z,5.3
2018-03-22T22:45:02.597Z,5.0
2018-03-22T22:50:03.140Z,5.3
2018-03-22T22:55:02.671Z,5.0
2018-03-22T23:00:03.288Z,5.0
2018-03-22T23:05:02.818Z,5.0
2018-03-22T23:10:02.458Z,5.0
2018-03-22T23:15:03.011Z,5.0
2018-03-22T23:20:02.599Z,5.0
2018-03-22T23:25:03.132Z,5.0
2018-03-22T23:30:02.638Z,5.0
2018-03-22T23:35:03.264Z,5.0
2018-03-22T23:40:02.818Z,5.0
2018-03-22T23:45:03.365Z,5.0
2018-03-22T23:50:02.849Z,5.0
2018-03-22T23:55:03.367Z,5.0
